sensor_id;sensor_type;location;lat;lon;timestamp;pressure;altitude;pressure_sealevel;temperature;humidity
17060;BME280;8646;49.716;9.266;2023-02-12T00:00:28;102387.50;;;6.60;83.79
17060;BME280;8646;49.716;9.266;2023-02-12T00:03:32;102383.94;;;6.64;83.74
17060;BME280;8646;49.716;9.266;2023-02-12T00:06:37;102380.34;;;6.60;84.09
17060;BME280;8646;49.716;9.266;2023-02-12T00:09:39;102383.06;;;6.65;84.01
17060;BME280;8646;49.716;9.266;2023-02-12T00:12:42;102378.56;;;6.64;84.21
17060;BME280;8646;49.716;9.266;2023-02-12T00:15:45;102378.56;;;6.67;84.30
17060;BME280;8646;49.716;9.266;2023-02-12T00:18:52;102364.16;;;6.59;83.97
17060;BME280;8646;49.716;9.266;2023-02-12T00:21:55;102383.06;;;6.69;84.32
17060;BME280;8646;49.716;9.266;2023-02-12T00:24:58;102376.78;;;6.69;83.96
17060;BME280;8646;49.716;9.266;2023-02-12T00:28:01;102376.78;;;6.69;83.92
17060;BME280;8646;49.716;9.266;2023-02-12T00:31:06;102384.00;;;6.73;84.00
17060;BME280;8646;49.716;9.266;2023-02-12T00:34:10;102383.94;;;6.64;84.15
17060;BME280;8646;49.716;9.266;2023-02-12T00:37:13;102390.22;;;6.66;83.75
17060;BME280;8646;49.716;9.266;2023-02-12T00:40:16;102389.34;;;6.64;84.06
17060;BME280;8646;49.716;9.266;2023-02-12T00:43:19;102391.13;;;6.65;83.92
17060;BME280;8646;49.716;9.266;2023-02-12T00:46:22;102392.91;;;6.66;84.05
17060;BME280;8646;49.716;9.266;2023-02-12T00:49:27;102383.94;;;6.67;84.31
17060;BME280;8646;49.716;9.266;2023-02-12T00:52:29;102382.16;;;6.66;84.08
17060;BME280;8646;49.716;9.266;2023-02-12T00:55:32;102394.69;;;6.61;84.20
17060;BME280;8646;49.716;9.266;2023-02-12T00:58:35;102392.91;;;6.61;84.40
17060;BME280;8646;49.716;9.266;2023-02-12T01:01:38;102380.31;;;6.59;84.16
17060;BME280;8646;49.716;9.266;2023-02-12T01:04:43;102371.31;;;6.54;84.20
17060;BME280;8646;49.716;9.266;2023-02-12T01:07:48;102382.16;;;6.63;84.49
17060;BME280;8646;49.716;9.266;2023-02-12T01:10:56;102376.78;;;6.63;84.24
17060;BME280;8646;49.716;9.266;2023-02-12T01:13:59;102377.69;;;6.65;84.30
17060;BME280;8646;49.716;9.266;2023-02-12T01:17:02;102372.31;;;6.65;84.30
17060;BME280;8646;49.716;9.266;2023-02-12T01:20:09;102357.91;;;6.57;84.74
17060;BME280;8646;49.716;9.266;2023-02-12T01:23:12;102364.22;;;6.63;84.48
17060;BME280;8646;49.716;9.266;2023-02-12T01:26:17;102344.44;;;6.54;84.46
17060;BME280;8646;49.716;9.266;2023-02-12T01:29:20;102365.97;;;6.60;84.59
17060;BME280;8646;49.716;9.266;2023-02-12T01:32:23;102369.56;;;6.56;84.85
17060;BME280;8646;49.716;9.266;2023-02-12T01:35:27;102374.06;;;6.57;85.18
17060;BME280;8646;49.716;9.266;2023-02-12T01:38:30;102361.41;;;6.49;85.13
17060;BME280;8646;49.716;9.266;2023-02-12T01:41:35;102371.28;;;6.49;85.54
17060;BME280;8646;49.716;9.266;2023-02-12T01:44:42;102372.19;;;6.48;85.48
17060;BME280;8646;49.716;9.266;2023-02-12T01:47:45;102368.56;;;6.44;85.53
17060;BME280;8646;49.716;9.266;2023-02-12T01:50:50;102371.25;;;6.44;85.77
17060;BME280;8646;49.716;9.266;2023-02-12T01:53:55;102360.53;;;6.47;85.60
17060;BME280;8646;49.716;9.266;2023-02-12T01:57:02;102362.34;;;6.48;85.72
17060;BME280;8646;49.716;9.266;2023-02-12T02:00:09;102359.66;;;6.53;84.99
17060;BME280;8646;49.716;9.266;2023-02-12T02:03:13;102356.06;;;6.48;85.33
17060;BME280;8646;49.716;9.266;2023-02-12T02:06:20;102359.59;;;6.44;85.44
17060;BME280;8646;49.716;9.266;2023-02-12T02:09:24;102360.53;;;6.47;85.41
17060;BME280;8646;49.716;9.266;2023-02-12T02:12:28;102364.13;;;6.49;85.44
17060;BME280;8646;49.716;9.266;2023-02-12T02:15:54;102361.47;;;6.53;85.67
17060;BME280;8646;49.716;9.266;2023-02-12T02:19:01;102368.59;;;6.47;85.45
17060;BME280;8646;49.716;9.266;2023-02-12T02:22:17;102356.94;;;6.45;85.51
17060;BME280;8646;49.716;9.266;2023-02-12T02:25:52;102360.50;;;6.44;85.81
17060;BME280;8646;49.716;9.266;2023-02-12T02:29:07;102358.72;;;6.46;85.66
17060;BME280;8646;49.716;9.266;2023-02-12T02:32:22;102362.31;;;6.45;85.99
17060;BME280;8646;49.716;9.266;2023-02-12T02:35:30;102364.97;;;6.44;85.87
17060;BME280;8646;49.716;9.266;2023-02-12T02:38:38;102364.09;;;6.45;86.06
17060;BME280;8646;49.716;9.266;2023-02-12T02:41:46;102375.72;;;6.42;85.80
17060;BME280;8646;49.716;9.266;2023-02-12T02:44:53;102355.06;;;6.35;86.05
17060;BME280;8646;49.716;9.266;2023-02-12T02:48:02;102366.78;;;6.43;85.82
17060;BME280;8646;49.716;9.266;2023-02-12T02:51:09;102368.59;;;6.47;85.47
17060;BME280;8646;49.716;9.266;2023-02-12T02:54:16;102361.41;;;6.40;85.68
17060;BME280;8646;49.716;9.266;2023-02-12T02:57:25;102373.09;;;6.48;85.40
17060;BME280;8646;49.716;9.266;2023-02-12T03:00:34;102375.78;;;6.51;85.56
17060;BME280;8646;49.716;9.266;2023-02-12T03:03:44;102372.22;;;6.53;85.24
17060;BME280;8646;49.716;9.266;2023-02-12T03:06:53;102366.81;;;6.51;85.20
17060;BME280;8646;49.716;9.266;2023-02-12T03:10:00;102371.28;;;6.49;85.20
17060;BME280;8646;49.716;9.266;2023-02-12T03:13:06;102382.97;;;6.53;85.41
17060;BME280;8646;49.716;9.266;2023-02-12T03:16:14;102388.38;;;6.56;85.22
17060;BME280;8646;49.716;9.266;2023-02-12T03:19:22;102379.41;;;6.55;85.46
17060;BME280;8646;49.716;9.266;2023-02-12T03:22:29;102378.50;;;6.55;85.29
17060;BME280;8646;49.716;9.266;2023-02-12T03:25:34;102388.38;;;6.57;85.39
17060;BME280;8646;49.716;9.266;2023-02-12T03:28:39;102385.69;;;6.57;85.27
17060;BME280;8646;49.716;9.266;2023-02-12T03:31:53;102384.81;;;6.57;85.29
17060;BME280;8646;49.716;9.266;2023-02-12T03:35:08;102384.81;;;6.57;85.25
17060;BME280;8646;49.716;9.266;2023-02-12T03:38:18;102385.69;;;6.56;85.33
17060;BME280;8646;49.716;9.266;2023-02-12T03:41:26;102387.50;;;6.57;85.35
17060;BME280;8646;49.716;9.266;2023-02-12T03:44:43;102385.69;;;6.59;85.11
17060;BME280;8646;49.716;9.266;2023-02-12T03:47:55;102384.81;;;6.57;85.03
17060;BME280;8646;49.716;9.266;2023-02-12T03:51:10;102386.59;;;6.56;85.07
17060;BME280;8646;49.716;9.266;2023-02-12T03:54:18;102385.69;;;6.56;85.09
17060;BME280;8646;49.716;9.266;2023-02-12T03:57:24;102375.81;;;6.55;85.05
17060;BME280;8646;49.716;9.266;2023-02-12T04:00:31;102369.53;;;6.53;85.11
17060;BME280;8646;49.716;9.266;2023-02-12T04:03:34;102368.59;;;6.49;85.01
17060;BME280;8646;49.716;9.266;2023-02-12T04:06:38;102369.50;;;6.46;85.14
17060;BME280;8646;49.716;9.266;2023-02-12T04:09:41;102383.88;;;6.53;85.05
17060;BME280;8646;49.716;9.266;2023-02-12T04:12:51;102388.38;;;6.57;85.12
17060;BME280;8646;49.716;9.266;2023-02-12T04:16:05;102386.59;;;6.56;85.07
17060;BME280;8646;49.716;9.266;2023-02-12T04:19:12;102391.06;;;6.56;85.29
17060;BME280;8646;49.716;9.266;2023-02-12T04:22:28;102399.13;;;6.54;85.32
17060;BME280;8646;49.716;9.266;2023-02-12T04:25:44;102387.44;;;6.52;85.10
17060;BME280;8646;49.716;9.266;2023-02-12T04:29:04;102397.31;;;6.53;84.89
17060;BME280;8646;49.716;9.266;2023-02-12T04:32:13;102392.81;;;6.50;84.92
17060;BME280;8646;49.716;9.266;2023-02-12T04:35:21;102402.69;;;6.51;84.89
17060;BME280;8646;49.716;9.266;2023-02-12T04:38:29;102405.41;;;6.53;85.09
17060;BME280;8646;49.716;9.266;2023-02-12T04:41:34;102403.56;;;6.50;85.00
17060;BME280;8646;49.716;9.266;2023-02-12T04:44:38;102408.94;;;6.44;85.11
17060;BME280;8646;49.716;9.266;2023-02-12T04:47:41;102405.31;;;6.42;85.70
17060;BME280;8646;49.716;9.266;2023-02-12T04:50:44;102410.69;;;6.39;85.82
17060;BME280;8646;49.716;9.266;2023-02-12T04:53:48;102410.69;;;6.41;85.83
17060;BME280;8646;49.716;9.266;2023-02-12T04:56:51;102411.59;;;6.43;85.69
17060;BME280;8646;49.716;9.266;2023-02-12T04:59:54;102409.84;;;6.46;85.75
17060;BME280;8646;49.716;9.266;2023-02-12T05:02:57;102401.78;;;6.49;85.28
17060;BME280;8646;49.716;9.266;2023-02-12T05:06:01;102403.53;;;6.43;85.51
17060;BME280;8646;49.716;9.266;2023-02-12T05:09:07;102409.72;;;6.33;85.75
17060;BME280;8646;49.716;9.266;2023-02-12T05:12:10;102406.16;;;6.32;86.25
17060;BME280;8646;49.716;9.266;2023-02-12T05:15:13;102405.25;;;6.33;86.16
17060;BME280;8646;49.716;9.266;2023-02-12T05:18:15;102403.47;;;6.32;86.11
17060;BME280;8646;49.716;9.266;2023-02-12T05:21:18;102398.97;;;6.30;86.11
17060;BME280;8646;49.716;9.266;2023-02-12T05:24:22;102407.03;;;6.31;85.94
17060;BME280;8646;49.716;9.266;2023-02-12T05:27:25;102405.19;;;6.24;86.32
17060;BME280;8646;49.716;9.266;2023-02-12T05:30:28;102407.88;;;6.23;86.69
17060;BME280;8646;49.716;9.266;2023-02-12T05:33:30;102407.88;;;6.26;86.58
17060;BME280;8646;49.716;9.266;2023-02-12T05:36:34;102404.28;;;6.25;86.50
17060;BME280;8646;49.716;9.266;2023-02-12T05:39:38;102407.88;;;6.24;86.50
17060;BME280;8646;49.716;9.266;2023-02-12T05:42:41;102414.13;;;6.22;86.38
17060;BME280;8646;49.716;9.266;2023-02-12T05:45:43;102408.78;;;6.23;86.32
17060;BME280;8646;49.716;9.266;2023-02-12T05:48:46;102400.72;;;6.23;86.38
17060;BME280;8646;49.716;9.266;2023-02-12T05:51:49;102406.06;;;6.25;86.26
17060;BME280;8646;49.716;9.266;2023-02-12T05:54:53;102408.75;;;6.25;86.43
17060;BME280;8646;49.716;9.266;2023-02-12T05:57:56;102415.94;;;6.23;86.66
17060;BME280;8646;49.716;9.266;2023-02-12T06:00:59;102415.00;;;6.21;86.55
17060;BME280;8646;49.716;9.266;2023-02-12T06:04:03;102418.56;;;6.18;86.82
17060;BME280;8646;49.716;9.266;2023-02-12T06:07:06;102415.91;;;6.20;86.96
17060;BME280;8646;49.716;9.266;2023-02-12T06:10:10;102428.44;;;6.19;86.67
17060;BME280;8646;49.716;9.266;2023-02-12T06:13:13;102432.06;;;6.21;86.66
17060;BME280;8646;49.716;9.266;2023-02-12T06:16:18;102423.97;;;6.21;86.78
17060;BME280;8646;49.716;9.266;2023-02-12T06:19:21;102422.22;;;6.23;86.84
17060;BME280;8646;49.716;9.266;2023-02-12T06:22:26;102430.28;;;6.26;86.78
17060;BME280;8646;49.716;9.266;2023-02-12T06:25:30;102437.44;;;6.26;86.63
17060;BME280;8646;49.716;9.266;2023-02-12T06:28:33;102440.16;;;6.26;86.66
17060;BME280;8646;49.716;9.266;2023-02-12T06:31:36;102438.34;;;6.25;86.58
17060;BME280;8646;49.716;9.266;2023-02-12T06:34:39;102445.53;;;6.24;86.50
17060;BME280;8646;49.716;9.266;2023-02-12T06:37:42;102443.72;;;6.23;86.95
17060;BME280;8646;49.716;9.266;2023-02-12T06:40:47;102445.53;;;6.24;86.71
17060;BME280;8646;49.716;9.266;2023-02-12T06:43:52;102453.59;;;6.26;86.90
17060;BME280;8646;49.716;9.266;2023-02-12T06:46:55;102441.09;;;6.29;86.85
17060;BME280;8646;49.716;9.266;2023-02-12T06:49:59;102453.66;;;6.30;86.60
17060;BME280;8646;49.716;9.266;2023-02-12T06:53:02;102446.47;;;6.29;86.79
17060;BME280;8646;49.716;9.266;2023-02-12T06:56:08;102452.75;;;6.30;86.82
17060;BME280;8646;49.716;9.266;2023-02-12T06:59:13;102458.13;;;6.31;86.91
17060;BME280;8646;49.716;9.266;2023-02-12T07:02:16;102465.34;;;6.35;86.78
17060;BME280;8646;49.716;9.266;2023-02-12T07:05:19;102450.97;;;6.35;86.60
17060;BME280;8646;49.716;9.266;2023-02-12T07:08:22;102472.56;;;6.44;86.37
17060;BME280;8646;49.716;9.266;2023-02-12T07:11:28;102466.34;;;6.46;86.58
17060;BME280;8646;49.716;9.266;2023-02-12T07:14:31;102461.81;;;6.44;86.18
17060;BME280;8646;49.716;9.266;2023-02-12T07:17:34;102472.69;;;6.58;86.25
17060;BME280;8646;49.716;9.266;2023-02-12T07:20:37;102478.13;;;6.64;86.05
17060;BME280;8646;49.716;9.266;2023-02-12T07:23:40;102479.00;;;6.66;85.99
17060;BME280;8646;49.716;9.266;2023-02-12T07:26:44;102478.19;;;6.73;86.02
17060;BME280;8646;49.716;9.266;2023-02-12T07:29:47;102477.31;;;6.77;85.81
17060;BME280;8646;49.716;9.266;2023-02-12T07:32:49;102481.81;;;6.82;86.07
17060;BME280;8646;49.716;9.266;2023-02-12T07:35:52;102482.78;;;6.89;86.00
17060;BME280;8646;49.716;9.266;2023-02-12T07:38:56;102477.47;;;6.97;85.44
17060;BME280;8646;49.716;9.266;2023-02-12T07:42:01;102477.47;;;7.06;85.57
17060;BME280;8646;49.716;9.266;2023-02-12T07:45:04;102477.53;;;7.12;85.34
17060;BME280;8646;49.716;9.266;2023-02-12T07:48:08;102479.34;;;7.17;85.24
17060;BME280;8646;49.716;9.266;2023-02-12T07:51:13;102481.16;;;7.18;85.28
17060;BME280;8646;49.716;9.266;2023-02-12T07:54:16;102481.22;;;7.27;85.01
17060;BME280;8646;49.716;9.266;2023-02-12T07:57:20;102488.41;;;7.32;84.93
17060;BME280;8646;49.716;9.266;2023-02-12T08:00:23;102483.97;;;7.41;84.65
17060;BME280;8646;49.716;9.266;2023-02-12T08:03:27;102479.50;;;7.45;84.64
17060;BME280;8646;49.716;9.266;2023-02-12T08:06:31;102492.09;;;7.55;84.37
17060;BME280;8646;49.716;9.266;2023-02-12T08:09:34;102485.81;;;7.57;84.44
17060;BME280;8646;49.716;9.266;2023-02-12T08:12:38;102496.63;;;7.63;84.35
17060;BME280;8646;49.716;9.266;2023-02-12T08:15:41;102485.84;;;7.66;84.16
17060;BME280;8646;49.716;9.266;2023-02-12T08:18:44;102495.75;;;7.71;83.86
17060;BME280;8646;49.716;9.266;2023-02-12T08:21:48;102494.88;;;7.75;83.56
17060;BME280;8646;49.716;9.266;2023-02-12T08:24:51;102496.69;;;7.83;83.85
17060;BME280;8646;49.716;9.266;2023-02-12T08:27:55;102499.41;;;7.89;83.62
17060;BME280;8646;49.716;9.266;2023-02-12T08:30:59;102503.00;;;7.97;83.49
17060;BME280;8646;49.716;9.266;2023-02-12T08:34:03;102498.53;;;7.99;83.53
17060;BME280;8646;49.716;9.266;2023-02-12T08:37:06;102494.97;;;8.02;83.08
17060;BME280;8646;49.716;9.266;2023-02-12T08:40:10;102497.66;;;8.07;83.21
17060;BME280;8646;49.716;9.266;2023-02-12T08:43:15;102503.06;;;8.10;82.54
17060;BME280;8646;49.716;9.266;2023-02-12T08:46:20;102501.25;;;8.12;82.76
17060;BME280;8646;49.716;9.266;2023-02-12T08:49:26;102506.66;;;8.18;82.74
17060;BME280;8646;49.716;9.266;2023-02-12T08:52:29;102501.28;;;8.24;82.91
17060;BME280;8646;49.716;9.266;2023-02-12T08:55:31;102504.94;;;8.33;82.55
17060;BME280;8646;49.716;9.266;2023-02-12T08:58:36;102506.72;;;8.43;82.41
17060;BME280;8646;49.716;9.266;2023-02-12T09:01:40;102501.31;;;8.54;82.42
17060;BME280;8646;49.716;9.266;2023-02-12T09:04:43;102504.94;;;8.65;82.31
17060;BME280;8646;49.716;9.266;2023-02-12T09:07:46;102503.09;;;8.76;82.05
17060;BME280;8646;49.716;9.266;2023-02-12T09:10:49;102499.50;;;8.87;81.69
17060;BME280;8646;49.716;9.266;2023-02-12T09:13:53;102501.28;;;8.97;81.40
17060;BME280;8646;49.716;9.266;2023-02-12T09:16:56;102508.47;;;9.05;80.99
17060;BME280;8646;49.716;9.266;2023-02-12T09:19:59;102500.34;;;9.13;80.65
17060;BME280;8646;49.716;9.266;2023-02-12T09:23:03;102494.94;;;9.19;80.89
17060;BME280;8646;49.716;9.266;2023-02-12T09:26:07;102498.53;;;9.32;80.29
17060;BME280;8646;49.716;9.266;2023-02-12T09:29:12;102496.66;;;9.43;80.17
17060;BME280;8646;49.716;9.266;2023-02-12T09:32:15;102493.03;;;9.50;79.93
17060;BME280;8646;49.716;9.266;2023-02-12T09:35:18;102495.69;;;9.57;79.80
17060;BME280;8646;49.716;9.266;2023-02-12T09:38:21;102495.66;;;9.71;79.56
17060;BME280;8646;49.716;9.266;2023-02-12T09:41:40;102497.38;;;9.83;79.60
17060;BME280;8646;49.716;9.266;2023-02-12T09:44:52;102488.31;;;9.93;78.83
17060;BME280;8646;49.716;9.266;2023-02-12T09:48:06;102493.72;;;9.96;78.46
17060;BME280;8646;49.716;9.266;2023-02-12T09:51:14;102487.31;;;10.06;78.27
17060;BME280;8646;49.716;9.266;2023-02-12T09:54:19;102471.06;;;10.08;78.13
17060;BME280;8646;49.716;9.266;2023-02-12T09:57:24;102482.72;;;10.28;77.82
17060;BME280;8646;49.716;9.266;2023-02-12T10:00:31;102488.06;;;10.36;76.91
17060;BME280;8646;49.716;9.266;2023-02-12T10:03:34;102486.19;;;10.42;77.13
17060;BME280;8646;49.716;9.266;2023-02-12T10:06:45;102480.72;;;10.47;76.64
17060;BME280;8646;49.716;9.266;2023-02-12T10:10:05;102482.50;;;10.54;77.22
17060;BME280;8646;49.716;9.266;2023-02-12T10:13:18;102471.69;;;10.54;76.91
17060;BME280;8646;49.716;9.266;2023-02-12T10:16:36;102476.94;;;10.69;77.00
17060;BME280;8646;49.716;9.266;2023-02-12T10:20:13;102475.03;;;10.80;77.02
17060;BME280;8646;49.716;9.266;2023-02-12T10:27:04;102458.53;;;11.03;76.45
17060;BME280;8646;49.716;9.266;2023-02-12T10:30:19;102470.13;;;11.17;76.76
17060;BME280;8646;49.716;9.266;2023-02-12T10:33:29;102466.41;;;11.26;76.75
17060;BME280;8646;49.716;9.266;2023-02-12T10:36:38;102464.56;;;11.28;75.88
17060;BME280;8646;49.716;9.266;2023-02-12T10:39:48;102465.44;;;11.30;76.17
17060;BME280;8646;49.716;9.266;2023-02-12T10:42:52;102463.53;;;11.38;75.53
17060;BME280;8646;49.716;9.266;2023-02-12T10:45:55;102460.72;;;11.47;75.57
17060;BME280;8646;49.716;9.266;2023-02-12T10:49:01;102455.19;;;11.55;75.28
17060;BME280;8646;49.716;9.266;2023-02-12T10:52:10;102448.75;;;11.63;74.93
17060;BME280;8646;49.716;9.266;2023-02-12T10:55:33;102438.81;;;11.64;74.86
17060;BME280;8646;49.716;9.266;2023-02-12T10:58:38;102440.50;;;11.71;74.32
17060;BME280;8646;49.716;9.266;2023-02-12T11:01:46;102435.00;;;11.80;73.98
17060;BME280;8646;49.716;9.266;2023-02-12T11:04:50;102419.47;;;11.90;73.57
17060;BME280;8646;49.716;9.266;2023-02-12T11:07:55;102422.06;;;11.99;73.09
17060;BME280;8646;49.716;9.266;2023-02-12T11:11:07;102412.81;;;12.10;72.67
17060;BME280;8646;49.716;9.266;2023-02-12T11:14:17;102407.28;;;12.16;72.50
17060;BME280;8646;49.716;9.266;2023-02-12T11:17:24;102402.59;;;12.26;72.44
17060;BME280;8646;49.716;9.266;2023-02-12T11:20:36;102392.38;;;12.42;72.53
17060;BME280;8646;49.716;9.266;2023-02-12T11:23:42;102369.81;;;12.38;71.52
17060;BME280;8646;49.716;9.266;2023-02-12T11:26:45;102384.00;;;12.54;70.50
17060;BME280;8646;49.716;9.266;2023-02-12T11:30:11;102372.41;;;12.46;71.45
17060;BME280;8646;49.716;9.266;2023-02-12T11:33:16;102366.09;;;12.42;71.06
17060;BME280;8646;49.716;9.266;2023-02-12T11:36:26;102346.47;;;12.28;71.01
17060;BME280;8646;49.716;9.266;2023-02-12T11:39:35;102366.25;;;12.35;71.12
17060;BME280;8646;49.716;9.266;2023-02-12T11:42:39;102368.13;;;12.31;71.26
17060;BME280;8646;49.716;9.266;2023-02-12T11:45:45;102368.16;;;12.30;71.21
17060;BME280;8646;49.716;9.266;2023-02-12T11:48:50;102364.53;;;12.31;70.86
17060;BME280;8646;49.716;9.266;2023-02-12T11:51:57;102361.72;;;12.35;70.46
17060;BME280;8646;49.716;9.266;2023-02-12T11:55:04;102360.78;;;12.38;70.21
17060;BME280;8646;49.716;9.266;2023-02-12T11:58:15;102351.63;;;12.42;70.63
17060;BME280;8646;49.716;9.266;2023-02-12T12:01:20;102336.25;;;12.41;70.11
17060;BME280;8646;49.716;9.266;2023-02-12T12:04:26;102354.16;;;12.52;69.81
17060;BME280;8646;49.716;9.266;2023-02-12T12:07:35;102340.56;;;12.52;69.66
17060;BME280;8646;49.716;9.266;2023-02-12T12:10:44;102317.22;;;12.42;69.90
17060;BME280;8646;49.716;9.266;2023-02-12T12:13:53;102319.72;;;12.54;69.75
17060;BME280;8646;49.716;9.266;2023-02-12T12:17:02;102330.16;;;12.76;69.40
17060;BME280;8646;49.716;9.266;2023-02-12T12:20:28;102318.41;;;12.74;68.81
17060;BME280;8646;49.716;9.266;2023-02-12T12:23:36;102332.66;;;12.86;68.55
17060;BME280;8646;49.716;9.266;2023-02-12T12:26:46;102319.88;;;12.90;68.71
17060;BME280;8646;49.716;9.266;2023-02-12T12:29:54;102318.00;;;12.95;68.95
17060;BME280;8646;49.716;9.266;2023-02-12T12:33:14;102314.25;;;12.99;68.14
17060;BME280;8646;49.716;9.266;2023-02-12T12:36:46;102314.22;;;13.02;67.76
17060;BME280;8646;49.716;9.266;2023-02-12T12:40:03;102308.81;;;13.00;67.53
17060;BME280;8646;49.716;9.266;2023-02-12T12:43:12;102304.47;;;12.92;67.62
17060;BME280;8646;49.716;9.266;2023-02-12T12:46:41;102297.13;;;12.97;66.83
17060;BME280;8646;49.716;9.266;2023-02-12T12:50:07;102291.75;;;12.92;66.67
17060;BME280;8646;49.716;9.266;2023-02-12T12:53:29;102290.97;;;12.89;66.93
17060;BME280;8646;49.716;9.266;2023-02-12T12:56:54;102288.97;;;12.97;66.30
17060;BME280;8646;49.716;9.266;2023-02-12T13:00:12;102267.22;;;12.97;66.02
17060;BME280;8646;49.716;9.266;2023-02-12T13:03:34;102281.22;;;13.20;65.77
17060;BME280;8646;49.716;9.266;2023-02-12T13:06:51;102281.03;;;13.29;65.25
17060;BME280;8646;49.716;9.266;2023-02-12T13:10:16;102277.06;;;13.43;64.53
17060;BME280;8646;49.716;9.266;2023-02-12T13:13:28;102274.59;;;13.32;64.41
17060;BME280;8646;49.716;9.266;2023-02-12T13:16:38;102270.53;;;13.11;64.97
17060;BME280;8646;49.716;9.266;2023-02-12T13:19:49;102277.88;;;13.06;65.73
17060;BME280;8646;49.716;9.266;2023-02-12T13:22:58;102274.50;;;12.95;65.18
17060;BME280;8646;49.716;9.266;2023-02-12T13:26:07;102253.19;;;12.75;66.18
17060;BME280;8646;49.716;9.266;2023-02-12T13:29:18;102258.63;;;12.75;66.22
17060;BME280;8646;49.716;9.266;2023-02-12T13:32:26;102273.09;;;12.76;67.00
17060;BME280;8646;49.716;9.266;2023-02-12T13:35:31;102271.22;;;12.79;67.36
17060;BME280;8646;49.716;9.266;2023-02-12T13:38:38;102273.97;;;12.78;67.64
17060;BME280;8646;49.716;9.266;2023-02-12T13:41:51;102277.47;;;12.83;66.94
17060;BME280;8646;49.716;9.266;2023-02-12T13:45:11;102273.63;;;12.94;67.43
17060;BME280;8646;49.716;9.266;2023-02-12T13:48:32;102268.03;;;13.00;67.68
17060;BME280;8646;49.716;9.266;2023-02-12T13:51:42;102265.00;;;13.16;67.59
17060;BME280;8646;49.716;9.266;2023-02-12T13:54:53;102267.34;;;13.32;67.31
17060;BME280;8646;49.716;9.266;2023-02-12T13:58:38;102268.06;;;13.41;66.98
17060;BME280;8646;49.716;9.266;2023-02-12T14:01:43;102261.44;;;13.52;66.97
17060;BME280;8646;49.716;9.266;2023-02-12T14:04:54;102256.66;;;13.62;66.31
17060;BME280;8646;49.716;9.266;2023-02-12T14:08:00;102262.03;;;13.63;65.97
17060;BME280;8646;49.716;9.266;2023-02-12T14:11:07;102259.41;;;13.60;65.72
17060;BME280;8646;49.716;9.266;2023-02-12T14:14:10;102251.28;;;13.59;66.37
17060;BME280;8646;49.716;9.266;2023-02-12T14:17:41;102256.56;;;13.65;65.96
17060;BME280;8646;49.716;9.266;2023-02-12T14:20:44;102251.75;;;13.76;65.88
17060;BME280;8646;49.716;9.266;2023-02-12T14:23:47;102254.25;;;13.85;65.88
17060;BME280;8646;49.716;9.266;2023-02-12T14:26:51;102250.34;;;13.95;65.69
17060;BME280;8646;49.716;9.266;2023-02-12T14:33:28;102241.34;;;13.93;64.78
17060;BME280;8646;49.716;9.266;2023-02-12T14:36:36;102245.16;;;13.86;64.56
17060;BME280;8646;49.716;9.266;2023-02-12T14:39:41;102252.63;;;13.78;65.31
17060;BME280;8646;49.716;9.266;2023-02-12T14:42:54;102249.25;;;13.68;65.49
17060;BME280;8646;49.716;9.266;2023-02-12T14:45:58;102246.72;;;13.61;65.42
17060;BME280;8646;49.716;9.266;2023-02-12T14:49:24;102246.31;;;13.39;65.93
17060;BME280;8646;49.716;9.266;2023-02-12T14:52:30;102244.25;;;13.13;66.89
17060;BME280;8646;49.716;9.266;2023-02-12T14:55:34;102250.13;;;12.90;67.47
17060;BME280;8646;49.716;9.266;2023-02-12T14:58:37;102256.03;;;12.69;68.19
17060;BME280;8646;49.716;9.266;2023-02-12T15:01:41;102249.09;;;12.56;68.70
17060;BME280;8646;49.716;9.266;2023-02-12T15:04:47;102256.56;;;12.43;69.05
17060;BME280;8646;49.716;9.266;2023-02-12T15:07:52;102240.59;;;12.27;69.56
17060;BME280;8646;49.716;9.266;2023-02-12T15:11:02;102241.69;;;12.18;70.04
17060;BME280;8646;49.716;9.266;2023-02-12T15:14:14;102249.78;;;12.21;70.24
17060;BME280;8646;49.716;9.266;2023-02-12T15:17:19;102252.50;;;12.19;70.84
17060;BME280;8646;49.716;9.266;2023-02-12T15:20:29;102242.72;;;12.11;70.78
17060;BME280;8646;49.716;9.266;2023-02-12T15:23:38;102255.19;;;12.22;71.06
17060;BME280;8646;49.716;9.266;2023-02-12T15:26:44;102255.22;;;12.19;71.18
17060;BME280;8646;49.716;9.266;2023-02-12T15:29:49;102251.75;;;12.11;71.39
17060;BME280;8646;49.716;9.266;2023-02-12T15:32:54;102249.28;;;11.99;71.66
17060;BME280;8646;49.716;9.266;2023-02-12T15:36:00;102265.50;;;12.01;71.67
17060;BME280;8646;49.716;9.266;2023-02-12T15:39:05;102262.13;;;11.90;71.61
17060;BME280;8646;49.716;9.266;2023-02-12T15:42:24;102267.66;;;11.83;72.03
17060;BME280;8646;49.716;9.266;2023-02-12T15:45:28;102264.00;;;11.84;72.28
17060;BME280;8646;49.716;9.266;2023-02-12T15:48:33;102271.38;;;11.76;72.43
17060;BME280;8646;49.716;9.266;2023-02-12T15:51:38;102274.25;;;11.66;73.29
17060;BME280;8646;49.716;9.266;2023-02-12T15:54:43;102273.38;;;11.62;73.15
17060;BME280;8646;49.716;9.266;2023-02-12T15:57:48;102274.44;;;11.54;73.17
17060;BME280;8646;49.716;9.266;2023-02-12T16:00:53;102280.03;;;11.43;73.56
17060;BME280;8646;49.716;9.266;2023-02-12T16:03:59;102291.06;;;11.29;74.13
17060;BME280;8646;49.716;9.266;2023-02-12T16:07:06;102281.25;;;11.22;74.89
17060;BME280;8646;49.716;9.266;2023-02-12T16:10:13;102279.44;;;11.23;74.74
17060;BME280;8646;49.716;9.266;2023-02-12T16:13:18;102286.69;;;11.21;75.13
17060;BME280;8646;49.716;9.266;2023-02-12T16:16:24;102293.06;;;11.17;75.26
17060;BME280;8646;49.716;9.266;2023-02-12T16:19:29;102290.47;;;11.09;75.73
17060;BME280;8646;49.716;9.266;2023-02-12T16:22:37;102296.84;;;11.05;76.19
17060;BME280;8646;49.716;9.266;2023-02-12T16:25:40;102303.16;;;11.05;76.29
17060;BME280;8646;49.716;9.266;2023-02-12T16:28:45;102303.34;;;10.93;76.10
17060;BME280;8646;49.716;9.266;2023-02-12T16:31:53;102303.38;;;10.89;76.19
17060;BME280;8646;49.716;9.266;2023-02-12T16:34:59;102316.00;;;10.90;76.26
17060;BME280;8646;49.716;9.266;2023-02-12T16:41:52;102319.47;;;11.01;75.71
17060;BME280;8646;49.716;9.266;2023-02-12T16:44:56;102321.38;;;10.94;76.28
17060;BME280;8646;49.716;9.266;2023-02-12T16:48:00;102317.91;;;10.83;76.37
17060;BME280;8646;49.716;9.266;2023-02-12T16:51:05;102324.34;;;10.71;76.69